Time;durP1;ratioP1;P1;durP2;ratioP2;P2;SDS_P1;SDS_P2;PMS_P1;PMS_P2;Temp;Humidity;BMP_temperature;BMP_pressure;BME280_temperature;BME280_humidity;BME280_pressure;Samples;Min_cycle;Max_cycle;Signal;HPM_P1;HPM_P2
2022/04/14 00:01:09;;;;;;;;;26.00;23.67;;;;;;;;5079827;28;45470;-68
2022/04/14 00:03:34;;;;;;;;;26.33;23.33;;;;;;;;5079707;28;45391;-67
2022/04/14 00:05:59;;;;;;;;;33.00;29.67;;;;;;;;5079825;28;45292;-67
2022/04/14 00:08:24;;;;;;;;;28.00;25.33;;;;;;;;5080087;28;45288;-68
2022/04/14 00:10:49;;;;;;;;;31.00;28.33;;;;;;;;5079677;28;46355;-68
2022/04/14 00:13:16;;;;;;;;;28.00;26.00;;;;;;;;5080060;28;45291;-68
2022/04/14 00:15:42;;;;;;;;;31.33;24.33;;;;;;;;5079869;28;45316;-68
2022/04/14 00:18:07;;;;;;;;;27.00;25.00;;;;;;;;5079565;28;45297;-68
2022/04/14 00:20:32;;;;;;;;;35.33;27.00;;;;;;;;5079744;28;46521;-68
2022/04/14 00:22:59;;;;;;;;;24.67;23.00;;;;;;;;5079561;28;45433;-68
2022/04/14 00:25:24;;;;;;;;;29.67;28.00;;;;;;;;5079537;28;45326;-68
2022/04/14 00:27:49;;;;;;;;;32.33;30.00;;;;;;;;5079625;28;45674;-68
2022/04/14 00:30:15;;;;;;;;;34.67;30.67;;;;;;;;5079325;28;46274;-68
2022/04/14 00:32:40;;;;;;;;;48.67;34.33;;;;;;;;5079507;28;45151;-67
2022/04/14 00:35:06;;;;;;;;;41.33;35.67;;;;;;;;5079250;28;45491;-67
2022/04/14 00:37:31;;;;;;;;;46.00;37.00;;;;;;;;5079719;28;45411;-67
2022/04/14 00:39:56;;;;;;;;;46.33;38.00;;;;;;;;5079243;28;46315;-67
2022/04/14 00:42:22;;;;;;;;;46.67;37.67;;;;;;;;5079406;28;45358;-67
2022/04/14 00:44:47;;;;;;;;;48.67;38.67;;;;;;;;5079362;28;45339;-67
2022/04/14 00:47:12;;;;;;;;;42.00;35.00;;;;;;;;5079109;28;45291;-67
2022/04/14 00:49:38;;;;;;;;;36.67;32.00;;;;;;;;5079145;28;46664;-67
2022/04/14 00:52:04;;;;;;;;;37.00;31.33;;;;;;;;5079088;28;45459;-68
2022/04/14 00:54:30;;;;;;;;;44.00;32.33;;;;;;;;5078870;28;45312;-67
2022/04/14 00:57:00;;;;;;;;;37.00;32.33;;;;;;;;5079346;28;45321;-67
2022/04/14 00:59:25;;;;;;;;;32.33;29.33;;;;;;;;5078688;28;46373;-67
2022/04/14 01:01:51;;;;;;;;;37.33;32.33;;;;;;;;5079043;28;45252;-67
2022/04/14 01:04:16;;;;;;;;;35.00;32.67;;;;;;;;5078980;28;45360;-67
2022/04/14 01:06:42;;;;;;;;;42.33;35.00;;;;;;;;5079206;28;45371;-67
2022/04/14 01:09:18;;;;;;;;;36.67;32.33;;;;;;;;5078810;28;46262;-67
2022/04/14 01:11:44;;;;;;;;;35.33;32.33;;;;;;;;5078588;28;45426;-67
2022/04/14 01:14:18;;;;;;;;;44.67;36.00;;;;;;;;5078894;28;45310;-67
2022/04/14 01:16:43;;;;;;;;;37.67;33.00;;;;;;;;5077970;28;45348;-67
2022/04/14 01:19:08;;;;;;;;;38.33;33.00;;;;;;;;5078541;28;45461;-67
2022/04/14 01:21:34;;;;;;;;;40.00;35.00;;;;;;;;5078755;28;45388;-67
2022/04/14 01:23:59;;;;;;;;;38.33;32.00;;;;;;;;5078491;28;45427;-67
2022/04/14 01:26:27;;;;;;;;;40.33;33.00;;;;;;;;5078786;28;45240;-68
2022/04/14 01:28:52;;;;;;;;;34.00;31.67;;;;;;;;5078504;28;45661;-68
2022/04/14 01:31:17;;;;;;;;;42.33;32.33;;;;;;;;5078327;28;45467;-68
2022/04/14 01:33:42;;;;;;;;;36.67;32.67;;;;;;;;5078649;28;45324;-68
2022/04/14 01:36:08;;;;;;;;;41.33;34.67;;;;;;;;5078654;28;45285;-68
2022/04/14 01:38:33;;;;;;;;;41.67;33.00;;;;;;;;5078117;28;46450;-68
2022/04/14 01:40:58;;;;;;;;;40.33;32.67;;;;;;;;5078369;28;45328;-68
2022/04/14 01:43:23;;;;;;;;;37.33;32.67;;;;;;;;5078223;28;45443;-69
2022/04/14 01:45:51;;;;;;;;;33.33;29.00;;;;;;;;5078448;28;45283;-70
2022/04/14 01:48:16;;;;;;;;;30.00;29.00;;;;;;;;5076797;27;45488;-68
2022/04/14 01:50:41;;;;;;;;;35.00;32.00;;;;;;;;5076994;28;45325;-70
2022/04/14 01:53:07;;;;;;;;;32.67;30.00;;;;;;;;5077935;28;45418;-70
2022/04/14 01:55:32;;;;;;;;;37.00;32.67;;;;;;;;5078207;28;45652;-68
2022/04/14 01:57:57;;;;;;;;;31.00;29.67;;;;;;;;5077992;28;45627;-68
2022/04/14 02:00:22;;;;;;;;;35.33;31.33;;;;;;;;5077862;28;45415;-69
2022/04/14 02:02:47;;;;;;;;;27.00;21.67;;;;;;;;5077655;28;45472;-72
2022/04/14 02:05:13;;;;;;;;;31.67;28.33;;;;;;;;5077643;28;45443;-70
2022/04/14 02:07:38;;;;;;;;;26.00;24.67;;;;;;;;5077281;28;45603;-70
2022/04/14 02:10:04;;;;;;;;;29.33;27.33;;;;;;;;5077861;28;45386;-69
2022/04/14 02:12:29;;;;;;;;;24.33;23.67;;;;;;;;5077877;28;45441;-69
2022/04/14 02:14:54;;;;;;;;;25.00;23.00;;;;;;;;5077907;28;45422;-68
2022/04/14 02:17:19;;;;;;;;;26.00;21.00;;;;;;;;5077571;28;46113;-69
2022/04/14 02:19:45;;;;;;;;;17.00;15.00;;;;;;;;5077322;28;45328;-69
2022/04/14 02:22:10;;;;;;;;;21.00;20.33;;;;;;;;5077986;28;45382;-70
2022/04/14 02:24:37;;;;;;;;;23.67;23.00;;;;;;;;5077681;28;45427;-69
2022/04/14 02:27:03;;;;;;;;;26.33;22.67;;;;;;;;5077383;28;46420;-69
2022/04/14 02:29:28;;;;;;;;;33.33;28.33;;;;;;;;5077546;28;45347;-70
2022/04/14 02:31:57;;;;;;;;;27.33;26.00;;;;;;;;5077535;28;45288;-72
2022/04/14 02:34:22;;;;;;;;;26.67;25.33;;;;;;;;5077708;28;45443;-72
2022/04/14 02:36:50;;;;;;;;;29.67;24.33;;;;;;;;5077244;28;45430;-75
2022/04/14 02:39:15;;;;;;;;;21.67;21.67;;;;;;;;5077299;28;45464;-76
2022/04/14 02:41:40;;;;;;;;;20.33;20.33;;;;;;;;5077740;28;45487;-68
2022/04/14 02:44:05;;;;;;;;;25.67;21.00;;;;;;;;5077613;28;45270;-67
2022/04/14 02:46:30;;;;;;;;;25.00;22.00;;;;;;;;5077654;28;45446;-67
2022/04/14 02:48:56;;;;;;;;;20.00;18.67;;;;;;;;5076994;28;45655;-68
2022/04/14 02:51:21;;;;;;;;;23.00;21.00;;;;;;;;5077570;28;45202;-66
2022/04/14 02:53:46;;;;;;;;;20.33;18.67;;;;;;;;5077479;28;45933;-67
2022/04/14 02:56:11;;;;;;;;;22.00;17.33;;;;;;;;5077037;28;46462;-66
2022/04/14 02:58:37;;;;;;;;;19.67;19.00;;;;;;;;5077485;28;45768;-66
2022/04/14 03:01:02;;;;;;;;;19.00;18.33;;;;;;;;5077199;28;45408;-69
2022/04/14 03:03:28;;;;;;;;;20.00;17.67;;;;;;;;5077207;28;45345;-66
2022/04/14 03:05:53;;;;;;;;;21.67;19.67;;;;;;;;5076943;28;46874;-66
2022/04/14 03:08:18;;;;;;;;;18.00;16.67;;;;;;;;5076833;28;45236;-66
2022/04/14 03:10:44;;;;;;;;;20.67;19.00;;;;;;;;5077235;28;45293;-69
2022/04/14 03:13:09;;;;;;;;;20.67;18.33;;;;;;;;5077225;28;45430;-69
2022/04/14 03:15:34;;;;;;;;;21.67;17.33;;;;;;;;5077098;28;45243;-69
2022/04/14 03:18:00;;;;;;;;;17.67;16.33;;;;;;;;5077054;28;45309;-69
2022/04/14 03:20:25;;;;;;;;;23.00;20.33;;;;;;;;5077153;28;45598;-69
2022/04/14 03:22:50;;;;;;;;;22.33;16.33;;;;;;;;5077342;28;45209;-69
2022/04/14 03:25:15;;;;;;;;;17.00;17.00;;;;;;;;5076805;28;45333;-70
2022/04/14 03:27:41;;;;;;;;;15.67;15.67;;;;;;;;5076854;28;45359;-68
2022/04/14 03:30:07;;;;;;;;;18.33;16.00;;;;;;;;5077290;28;45229;-69
2022/04/14 03:32:32;;;;;;;;;29.00;23.67;;;;;;;;5058722;28;45480;-69
2022/04/14 03:35:02;;;;;;;;;25.00;21.33;;;;;;;;5076558;28;46081;-69
2022/04/14 03:37:27;;;;;;;;;26.33;25.33;;;;;;;;5076865;28;45324;-69
2022/04/14 03:39:52;;;;;;;;;24.33;20.33;;;;;;;;5077372;28;45336;-69
2022/04/14 03:42:17;;;;;;;;;23.00;18.67;;;;;;;;5080793;28;45264;-69
2022/04/14 03:44:43;;;;;;;;;25.67;20.67;;;;;;;;5080203;28;45455;-69
2022/04/14 03:47:08;;;;;;;;;22.00;22.00;;;;;;;;5079498;28;45368;-69
2022/04/14 03:49:34;;;;;;;;;19.00;17.67;;;;;;;;5080069;28;45380;-69
2022/04/14 03:51:59;;;;;;;;;16.33;14.00;;;;;;;;5080324;28;45307;-68
2022/04/14 03:54:24;;;;;;;;;22.67;21.00;;;;;;;;5079856;28;46955;-69
2022/04/14 03:56:49;;;;;;;;;27.67;21.33;;;;;;;;5080076;28;45209;-68
2022/04/14 03:59:16;;;;;;;;;26.00;22.33;;;;;;;;5079268;28;45370;-68
2022/04/14 04:01:41;;;;;;;;;25.00;24.00;;;;;;;;5080350;28;45427;-68
2022/04/14 04:04:06;;;;;;;;;21.33;17.67;;;;;;;;5079479;28;46112;-66
2022/04/14 04:06:32;;;;;;;;;21.00;19.33;;;;;;;;5080050;28;45454;-69
2022/04/14 04:08:57;;;;;;;;;18.33;13.33;;;;;;;;5079362;28;45321;-70
2022/04/14 04:11:22;;;;;;;;;16.33;15.67;;;;;;;;5080102;28;45382;-70
2022/04/14 04:13:47;;;;;;;;;11.67;11.67;;;;;;;;5079690;28;46507;-71
2022/04/14 04:16:13;;;;;;;;;48.67;34.00;;;;;;;;5079717;28;45446;-68
2022/04/14 04:18:38;;;;;;;;;20.33;16.00;;;;;;;;5079692;28;45340;-67
2022/04/14 04:21:04;;;;;;;;;16.33;15.67;;;;;;;;5080011;28;45358;-67
2022/04/14 04:23:29;;;;;;;;;13.33;10.00;;;;;;;;5079344;28;45489;-67
2022/04/14 04:25:54;;;;;;;;;13.00;11.67;;;;;;;;5078439;28;45499;-70
2022/04/14 04:28:19;;;;;;;;;18.33;14.00;;;;;;;;5079955;28;45373;-70
2022/04/14 04:30:44;;;;;;;;;13.00;11.33;;;;;;;;5079686;28;45601;-67
2022/04/14 04:33:10;;;;;;;;;13.00;11.67;;;;;;;;5060933;28;46270;-67
2022/04/14 04:35:35;;;;;;;;;20.67;18.00;;;;;;;;5079398;28;45340;-67
2022/04/14 04:38:00;;;;;;;;;21.67;15.67;;;;;;;;5079312;28;45583;-67
2022/04/14 04:40:25;;;;;;;;;13.00;13.00;;;;;;;;5079811;28;45337;-67
2022/04/14 04:42:51;;;;;;;;;13.00;12.67;;;;;;;;5079120;28;45919;-67
2022/04/14 04:45:16;;;;;;;;;11.00;11.00;;;;;;;;5079308;28;45312;-67
2022/04/14 04:47:41;;;;;;;;;11.67;11.67;;;;;;;;5078373;28;45519;-67
2022/04/14 04:50:07;;;;;;;;;11.67;10.67;;;;;;;;5079427;28;45572;-68
2022/04/14 04:52:35;;;;;;;;;14.00;11.67;;;;;;;;5078073;28;45333;-67
2022/04/14 04:55:00;;;;;;;;;11.67;10.33;;;;;;;;5078538;28;45482;-73
2022/04/14 04:57:26;;;;;;;;;14.67;11.33;;;;;;;;5064906;28;45490;-72
2022/04/14 04:59:51;;;;;;;;;17.33;14.33;;;;;;;;5067894;28;45225;-72
2022/04/14 05:02:16;;;;;;;;;12.33;11.33;;;;;;;;5058578;28;47296;-72
2022/04/14 05:04:42;;;;;;;;;12.33;12.00;;;;;;;;5058537;28;45426;-71
2022/04/14 05:07:07;;;;;;;;;14.33;14.00;;;;;;;;5058861;28;45373;-74
2022/04/14 05:09:32;;;;;;;;;13.00;12.67;;;;;;;;5058764;28;45507;-74
2022/04/14 05:11:57;;;;;;;;;18.00;16.33;;;;;;;;5058551;28;45549;-72
2022/04/14 05:14:23;;;;;;;;;12.33;11.00;;;;;;;;5058617;28;45304;-72
2022/04/14 05:16:48;;;;;;;;;14.67;11.00;;;;;;;;5058790;28;45383;-72
2022/04/14 05:19:13;;;;;;;;;14.00;11.00;;;;;;;;5058474;28;45401;-72
2022/04/14 05:21:38;;;;;;;;;14.00;12.00;;;;;;;;5058178;28;45580;-69
2022/04/14 05:24:04;;;;;;;;;12.33;10.67;;;;;;;;5058438;28;45427;-70
2022/04/14 05:26:29;;;;;;;;;14.33;11.00;;;;;;;;5058448;28;45308;-70
2022/04/14 05:28:54;;;;;;;;;12.33;12.00;;;;;;;;5058528;28;45417;-72
2022/04/14 05:31:21;;;;;;;;;15.33;13.33;;;;;;;;5057930;28;46389;-71
2022/04/14 05:33:46;;;;;;;;;13.00;11.00;;;;;;;;5058106;28;45409;-71
2022/04/14 05:36:12;;;;;;;;;12.00;11.00;;;;;;;;5058226;28;45329;-70
2022/04/14 05:38:37;;;;;;;;;12.00;11.00;;;;;;;;5058329;28;45331;-70
2022/04/14 05:41:02;;;;;;;;;14.67;13.00;;;;;;;;5058119;28;46492;-71
2022/04/14 05:43:28;;;;;;;;;9.67;9.67;;;;;;;;5057961;28;45337;-72
2022/04/14 05:45:56;;;;;;;;;11.67;7.67;;;;;;;;5058000;28;45443;-72
2022/04/14 05:48:22;;;;;;;;;9.00;9.00;;;;;;;;5058279;28;45473;-71
2022/04/14 05:50:49;;;;;;;;;13.67;10.00;;;;;;;;5057688;28;46497;-71
2022/04/14 05:53:18;;;;;;;;;16.67;12.67;;;;;;;;5057523;28;45453;-72
2022/04/14 05:55:44;;;;;;;;;8.00;8.00;;;;;;;;5057961;28;45464;-71
2022/04/14 05:58:09;;;;;;;;;9.33;6.67;;;;;;;;5058037;28;45512;-72
2022/04/14 06:00:35;;;;;;;;;14.00;11.00;;;;;;;;5057752;28;46102;-72
2022/04/14 06:03:01;;;;;;;;;8.00;8.00;;;;;;;;5056636;28;45584;-71
2022/04/14 06:05:27;;;;;;;;;14.33;11.00;;;;;;;;5057772;28;45230;-71
2022/04/14 06:07:52;;;;;;;;;10.67;10.00;;;;;;;;5058097;28;45265;-72
2022/04/14 06:10:17;;;;;;;;;8.67;8.67;;;;;;;;5057587;28;46958;-72
2022/04/14 06:12:42;;;;;;;;;13.67;9.00;;;;;;;;5057562;28;45441;-72
2022/04/14 06:15:08;;;;;;;;;9.67;8.67;;;;;;;;5057672;28;45289;-72
2022/04/14 06:17:33;;;;;;;;;11.00;9.67;;;;;;;;5058105;28;45272;-71
2022/04/14 06:19:59;;;;;;;;;13.00;10.00;;;;;;;;5057119;28;45318;-72
2022/04/14 06:22:24;;;;;;;;;12.33;9.33;;;;;;;;5057421;28;45369;-72
2022/04/14 06:24:49;;;;;;;;;9.00;9.00;;;;;;;;5057710;28;45727;-70
2022/04/14 06:27:14;;;;;;;;;11.67;7.00;;;;;;;;5057755;28;45325;-70
2022/04/14 06:29:40;;;;;;;;;11.00;9.67;;;;;;;;5057633;28;46346;-70
2022/04/14 06:32:05;;;;;;;;;19.33;18.00;;;;;;;;5057358;28;45356;-72
2022/04/14 06:34:30;;;;;;;;;13.00;8.33;;;;;;;;5056324;28;45464;-72
2022/04/14 06:36:56;;;;;;;;;8.00;8.00;;;;;;;;5057387;28;45506;-72
2022/04/14 06:39:21;;;;;;;;;12.00;10.00;;;;;;;;5056910;28;45529;-72
2022/04/14 06:41:46;;;;;;;;;11.67;9.00;;;;;;;;5057219;28;45345;-72
2022/04/14 06:44:11;;;;;;;;;12.67;10.00;;;;;;;;5056979;28;45521;-71
2022/04/14 06:46:37;;;;;;;;;11.33;9.00;;;;;;;;5056737;28;45435;-71
2022/04/14 06:49:03;;;;;;;;;9.00;7.67;;;;;;;;5056916;28;46387;-69
2022/04/14 06:51:29;;;;;;;;;11.00;11.00;;;;;;;;5056854;28;45769;-69
2022/04/14 06:53:54;;;;;;;;;11.67;11.00;;;;;;;;5056587;28;45410;-69
2022/04/14 06:56:19;;;;;;;;;14.33;11.33;;;;;;;;5056743;28;45511;-69
2022/04/14 06:58:44;;;;;;;;;14.00;11.00;;;;;;;;5056741;28;46604;-69
2022/04/14 07:01:09;;;;;;;;;14.33;11.67;;;;;;;;5057003;28;45395;-69
2022/04/14 07:03:35;;;;;;;;;11.67;11.00;;;;;;;;5056857;28;45242;-69
2022/04/14 07:06:00;;;;;;;;;9.67;8.67;;;;;;;;5056966;28;45255;-69
2022/04/14 07:08:26;;;;;;;;;14.67;9.00;;;;;;;;5056597;28;45606;-69
2022/04/14 07:10:52;;;;;;;;;14.33;10.67;;;;;;;;5056665;28;45330;-69
2022/04/14 07:13:17;;;;;;;;;9.33;9.33;;;;;;;;5057190;28;45377;-69
2022/04/14 07:15:42;;;;;;;;;10.00;8.67;;;;;;;;5058641;28;45379;-69
2022/04/14 07:18:08;;;;;;;;;17.67;14.67;;;;;;;;5060317;28;46094;-69
2022/04/14 07:20:33;;;;;;;;;12.00;9.00;;;;;;;;5060000;28;45436;-70
2022/04/14 07:22:59;;;;;;;;;11.33;9.00;;;;;;;;5060331;28;45772;-70
2022/04/14 07:25:25;;;;;;;;;11.00;9.33;;;;;;;;5060299;28;45384;-69
2022/04/14 07:27:50;;;;;;;;;14.00;9.33;;;;;;;;5060020;28;46052;-69
2022/04/14 07:30:15;;;;;;;;;11.67;10.67;;;;;;;;5060377;28;45274;-69
2022/04/14 07:32:45;;;;;;;;;14.33;9.00;;;;;;;;5060091;28;45324;-69
2022/04/14 07:35:12;;;;;;;;;12.00;8.00;;;;;;;;5060046;28;45413;-66
2022/04/14 07:37:37;;;;;;;;;11.00;9.00;;;;;;;;5060000;28;45657;-67
2022/04/14 07:40:03;;;;;;;;;12.00;9.00;;;;;;;;5059853;28;45407;-67
2022/04/14 07:42:33;;;;;;;;;11.00;9.00;;;;;;;;5070348;28;45319;-68
2022/04/14 07:44:58;;;;;;;;;12.00;12.00;;;;;;;;5080252;28;45251;-67
2022/04/14 07:47:24;;;;;;;;;10.67;9.67;;;;;;;;5079763;28;45437;-68
2022/04/14 07:49:49;;;;;;;;;8.33;7.00;;;;;;;;5079747;28;45704;-68
2022/04/14 07:52:14;;;;;;;;;10.33;9.67;;;;;;;;5079371;28;45450;-68
2022/04/14 07:54:40;;;;;;;;;13.00;11.33;;;;;;;;5073791;28;45514;-66
2022/04/14 07:57:05;;;;;;;;;13.00;12.00;;;;;;;;5068216;28;46564;-66
2022/04/14 07:59:30;;;;;;;;;11.33;10.67;;;;;;;;5068933;28;45377;-67
2022/04/14 08:02:00;;;;;;;;;16.67;10.67;;;;;;;;5069619;28;45531;-67
2022/04/14 08:04:26;;;;;;;;;10.33;10.00;;;;;;;;5065753;28;45300;-67
2022/04/14 08:06:51;;;;;;;;;19.33;14.67;;;;;;;;5068877;28;47362;-68
2022/04/14 08:09:16;;;;;;;;;15.00;11.67;;;;;;;;5066937;28;45444;-68
2022/04/14 08:11:42;;;;;;;;;11.67;9.33;;;;;;;;5070139;28;45314;-68
2022/04/14 08:14:07;;;;;;;;;15.00;11.33;;;;;;;;5068612;28;45566;-68
2022/04/14 08:16:32;;;;;;;;;12.67;11.33;;;;;;;;5068744;28;46411;-67
2022/04/14 08:18:58;;;;;;;;;10.67;8.00;;;;;;;;5069860;28;45485;-67
2022/04/14 08:21:24;;;;;;;;;11.67;10.00;;;;;;;;5067584;28;45361;-67
2022/04/14 08:23:51;;;;;;;;;16.33;13.67;;;;;;;;5070694;28;45413;-67
2022/04/14 08:26:17;;;;;;;;;8.67;8.33;;;;;;;;5071597;28;46275;-68
2022/04/14 08:28:43;;;;;;;;;10.67;10.00;;;;;;;;5077173;28;45359;-67
2022/04/14 08:31:09;;;;;;;;;6.67;5.33;;;;;;;;5068124;28;45807;-67
2022/04/14 08:33:35;;;;;;;;;13.67;10.33;;;;;;;;5067886;28;45495;-67
2022/04/14 08:36:01;;;;;;;;;14.33;10.67;;;;;;;;5061664;28;47392;-67
2022/04/14 08:38:26;;;;;;;;;13.67;10.67;;;;;;;;5057448;28;45446;-67
2022/04/14 08:40:58;;;;;;;;;11.33;9.33;;;;;;;;5063495;28;45470;-68
2022/04/14 08:43:27;;;;;;;;;11.33;10.33;;;;;;;;5070946;28;45392;-68
2022/04/14 08:45:53;;;;;;;;;12.67;12.67;;;;;;;;5060145;28;46143;-68
2022/04/14 08:48:20;;;;;;;;;10.67;8.33;;;;;;;;5071080;28;45292;-68
2022/04/14 08:50:48;;;;;;;;;13.67;10.67;;;;;;;;5078646;28;45443;-68
2022/04/14 08:53:14;;;;;;;;;10.67;8.67;;;;;;;;5079885;27;45264;-68
2022/04/14 08:55:40;;;;;;;;;8.67;8.00;;;;;;;;5077486;27;45527;-68
2022/04/14 08:58:06;;;;;;;;;14.00;8.67;;;;;;;;5077943;28;45679;-67
2022/04/14 09:00:32;;;;;;;;;15.33;9.67;;;;;;;;5077774;28;45391;-67
2022/04/14 09:02:59;;;;;;;;;14.67;11.33;;;;;;;;5077888;28;45410;-69
2022/04/14 09:05:24;;;;;;;;;15.00;14.67;;;;;;;;5077472;28;45498;-68
2022/04/14 09:07:50;;;;;;;;;11.33;11.33;;;;;;;;5077653;28;45422;-69
2022/04/14 09:10:16;;;;;;;;;10.67;10.67;;;;;;;;5077793;28;45335;-68
2022/04/14 09:12:41;;;;;;;;;13.67;11.33;;;;;;;;5077564;28;45356;-68
2022/04/14 09:15:07;;;;;;;;;11.33;10.33;;;;;;;;5078151;28;45483;-67
2022/04/14 09:17:32;;;;;;;;;13.00;9.33;;;;;;;;5078125;28;45432;-70
2022/04/14 09:19:57;;;;;;;;;14.33;12.00;;;;;;;;5078226;28;45499;-67
2022/04/14 09:22:23;;;;;;;;;12.33;11.00;;;;;;;;5078138;28;45445;-67
2022/04/14 09:24:48;;;;;;;;;12.67;11.67;;;;;;;;5076782;28;45558;-67
2022/04/14 09:27:31;;;;;;;;;11.00;7.33;;;;;;;;5077214;28;45528;-66
2022/04/14 09:29:59;;;;;;;;;10.00;9.00;;;;;;;;5077577;28;45671;-67
2022/04/14 09:32:32;;;;;;;;;9.00;8.00;;;;;;;;5077772;28;45523;-66
2022/04/14 09:35:02;;;;;;;;;29.33;20.67;;;;;;;;5077737;28;46316;-67
2022/04/14 09:37:27;;;;;;;;;19.00;11.00;;;;;;;;5076691;28;45470;-67
2022/04/14 09:39:53;;;;;;;;;9.67;9.67;;;;;;;;5077720;28;45396;-67
2022/04/14 09:42:22;;;;;;;;;11.00;10.00;;;;;;;;5078079;28;45663;-67
2022/04/14 09:44:48;;;;;;;;;13.00;10.67;;;;;;;;5038051;28;47183;-66
2022/04/14 09:47:23;;;;;;;;;9.00;6.00;;;;;;;;5057287;28;45585;-67
2022/04/14 09:49:48;;;;;;;;;9.33;9.00;;;;;;;;5057138;28;45317;-67
2022/04/14 09:52:14;;;;;;;;;12.67;12.67;;;;;;;;5057298;28;45486;-66
2022/04/14 09:54:40;;;;;;;;;6.67;6.00;;;;;;;;5057089;28;45636;-67
2022/04/14 09:57:09;;;;;;;;;14.00;13.00;;;;;;;;5067263;27;45538;-67
2022/04/14 09:59:37;;;;;;;;;8.33;8.00;;;;;;;;5079437;27;45672;-72
2022/04/14 10:02:13;;;;;;;;;6.00;6.00;;;;;;;;5077879;27;45419;-69
2022/04/14 10:04:39;;;;;;;;;6.33;5.00;;;;;;;;5056637;28;46261;-73
2022/04/14 10:07:06;;;;;;;;;6.00;6.00;;;;;;;;5069718;27;45492;-66
2022/04/14 10:09:33;;;;;;;;;8.00;5.00;;;;;;;;5074615;27;45452;-71
2022/04/14 10:11:58;;;;;;;;;4.67;4.00;;;;;;;;5085014;27;45325;-74
2022/04/14 10:14:25;;;;;;;;;5.67;5.67;;;;;;;;5076879;28;47338;-74
2022/04/14 10:16:50;;;;;;;;;1.33;1.33;;;;;;;;5078224;27;45326;-75
2022/04/14 10:19:16;;;;;;;;;5.33;4.33;;;;;;;;5077197;28;45359;-73
2022/04/14 10:21:43;;;;;;;;;0.00;0.00;;;;;;;;5076942;28;45387;-75
2022/04/14 10:24:08;;;;;;;;;0.67;0.67;;;;;;;;5076863;28;47197;-71
2022/04/14 10:26:34;;;;;;;;;2.00;2.00;;;;;;;;5076797;28;45492;-70
2022/04/14 10:29:00;;;;;;;;;1.00;1.00;;;;;;;;5078180;27;45512;-71
2022/04/14 10:31:26;;;;;;;;;2.00;1.00;;;;;;;;5077441;28;45479;-71
2022/04/14 10:33:52;;;;;;;;;0.67;0.67;;;;;;;;5076084;27;46457;-69
2022/04/14 10:36:17;;;;;;;;;0.00;0.00;;;;;;;;5076870;28;45421;-68
2022/04/14 10:38:44;;;;;;;;;0.00;0.00;;;;;;;;5089606;27;45780;-69
2022/04/14 10:41:13;;;;;;;;;0.00;0.00;;;;;;;;5075090;27;45399;-70
2022/04/14 10:43:40;;;;;;;;;0.00;0.00;;;;;;;;5096410;27;46256;-70
2022/04/14 10:46:06;;;;;;;;;1.67;0.67;;;;;;;;5097099;27;45508;-70
2022/04/14 10:48:32;;;;;;;;;2.00;2.00;;;;;;;;5089714;27;45434;-70
2022/04/14 10:51:16;;;;;;;;;1.00;0.33;;;;;;;;5094976;27;45458;-71
2022/04/14 10:53:48;;;;;;;;;0.33;0.00;;;;;;;;5059787;28;46472;-70
2022/04/14 10:56:32;;;;;;;;;1.33;1.00;;;;;;;;5072340;27;45371;-70
2022/04/14 10:58:57;;;;;;;;;0.00;0.00;;;;;;;;5099124;27;45742;-70
2022/04/14 11:01:41;;;;;;;;;1.00;1.00;;;;;;;;5092749;27;45434;-71
2022/04/14 11:04:23;;;;;;;;;0.33;0.33;;;;;;;;5080396;28;45790;-70
2022/04/14 11:06:50;;;;;;;;;2.00;1.00;;;;;;;;5081389;27;45427;-70
2022/04/14 11:09:42;;;;;;;;;0.00;0.00;;;;;;;;5089466;27;45655;-70
2022/04/14 11:12:14;;;;;;;;;1.00;1.00;;;;;;;;5088821;27;45640;-71
2022/04/14 11:14:46;;;;;;;;;1.00;1.00;;;;;;;;5085314;27;46451;-72
2022/04/14 11:17:37;;;;;;;;;3.00;1.00;;;;;;;;5089420;27;45637;-71
2022/04/14 11:20:15;;;;;;;;;4.00;1.00;;;;;;;;5089849;27;45503;-71
2022/04/14 11:22:58;;;;;;;;;2.00;2.00;;;;;;;;5089324;27;45372;-70
2022/04/14 11:25:38;;;;;;;;;3.00;1.00;;;;;;;;5079209;28;45499;-71
2022/04/14 11:28:22;;;;;;;;;1.00;1.00;;;;;;;;5079464;28;45517;-70
2022/04/14 11:30:48;;;;;;;;;4.00;3.00;;;;;;;;5080032;28;45432;-71
2022/04/14 11:33:34;;;;;;;;;4.33;2.33;;;;;;;;5079661;28;45344;-70
2022/04/14 11:36:05;;;;;;;;;1.33;0.67;;;;;;;;5089652;27;45715;-71
2022/04/14 11:38:50;;;;;;;;;0.00;0.00;;;;;;;;5080238;27;45366;-71
2022/04/14 11:41:32;;;;;;;;;3.00;0.00;;;;;;;;5081781;27;45379;-70
2022/04/14 11:43:58;;;;;;;;;3.00;1.00;;;;;;;;5095747;27;45435;-71
2022/04/14 11:46:23;;;;;;;;;1.00;1.00;;;;;;;;5099134;27;46464;-71
2022/04/14 11:48:48;;;;;;;;;13.00;13.00;;;;;;;;5097976;27;45491;-71
2022/04/14 11:51:15;;;;;;;;;1.00;1.00;;;;;;;;5078985;28;45393;-71
2022/04/14 11:53:40;;;;;;;;;2.00;2.00;;;;;;;;5079638;28;45244;-71
2022/04/14 11:56:14;;;;;;;;;2.00;2.00;;;;;;;;5079248;28;46673;-71
2022/04/14 11:58:39;;;;;;;;;2.00;2.00;;;;;;;;5078588;28;45506;-71
2022/04/14 12:01:06;;;;;;;;;0.00;0.00;;;;;;;;5091464;27;45285;-71
2022/04/14 12:03:31;;;;;;;;;0.00;0.00;;;;;;;;5100176;27;45431;-71
2022/04/14 12:06:02;;;;;;;;;0.00;0.00;;;;;;;;5081477;27;45369;-71
2022/04/14 12:08:27;;;;;;;;;1.00;1.00;;;;;;;;5079332;28;45359;-71
2022/04/14 12:10:53;;;;;;;;;0.00;0.00;;;;;;;;5079292;28;45354;-71
2022/04/14 12:13:19;;;;;;;;;0.00;0.00;;;;;;;;5079753;28;45377;-71
2022/04/14 12:15:59;;;;;;;;;1.33;0.33;;;;;;;;5078827;28;46640;-71
2022/04/14 12:18:24;;;;;;;;;1.00;1.00;;;;;;;;5078917;28;45375;-71
2022/04/14 12:20:50;;;;;;;;;3.00;1.00;;;;;;;;5079266;28;45363;-71
2022/04/14 12:23:15;;;;;;;;;0.67;0.67;;;;;;;;5078522;28;45403;-71
2022/04/14 12:25:40;;;;;;;;;1.00;1.00;;;;;;;;5079672;27;45643;-70
2022/04/14 12:28:06;;;;;;;;;1.00;1.00;;;;;;;;5077844;28;45385;-70
2022/04/14 12:30:32;;;;;;;;;0.00;0.00;;;;;;;;5077886;28;45554;-70
2022/04/14 12:33:01;;;;;;;;;1.00;0.00;;;;;;;;5078009;28;45433;-71
2022/04/14 12:35:32;;;;;;;;;2.00;2.00;;;;;;;;5075289;28;45510;-71
2022/04/14 12:38:11;;;;;;;;;1.33;0.00;;;;;;;;5077687;27;45474;-71
2022/04/14 12:40:36;;;;;;;;;0.00;0.00;;;;;;;;5058485;28;45386;-71
2022/04/14 12:43:04;;;;;;;;;0.00;0.00;;;;;;;;5086978;27;45381;-71
2022/04/14 12:45:36;;;;;;;;;2.67;1.00;;;;;;;;5078427;28;45663;-71
2022/04/14 12:48:01;;;;;;;;;0.00;0.00;;;;;;;;5077832;28;45448;-70
2022/04/14 12:50:26;;;;;;;;;0.00;0.00;;;;;;;;5078819;28;45254;-70
2022/04/14 12:52:55;;;;;;;;;0.00;0.00;;;;;;;;5077843;28;45425;-71
2022/04/14 12:55:24;;;;;;;;;0.00;0.00;;;;;;;;5082425;27;46679;-71
2022/04/14 12:57:52;;;;;;;;;1.00;0.00;;;;;;;;5078166;28;45229;-70
2022/04/14 13:00:21;;;;;;;;;2.00;2.00;;;;;;;;5089550;27;45498;-71
2022/04/14 13:03:04;;;;;;;;;0.00;0.00;;;;;;;;5083487;27;45516;-71
2022/04/14 13:05:30;;;;;;;;;0.00;0.00;;;;;;;;5077080;28;46233;-70
2022/04/14 13:07:56;;;;;;;;;0.00;0.00;;;;;;;;5077807;28;45422;-70
2022/04/14 13:10:24;;;;;;;;;1.00;1.00;;;;;;;;5078436;28;45374;-70
2022/04/14 13:12:50;;;;;;;;;0.00;0.00;;;;;;;;5092086;27;45645;-71
2022/04/14 13:15:16;;;;;;;;;19.00;19.00;;;;;;;;5098545;27;45672;-70
2022/04/14 13:17:42;;;;;;;;;0.67;0.00;;;;;;;;5088646;27;45449;-70
2022/04/14 13:20:09;;;;;;;;;2.00;2.00;;;;;;;;5059560;28;45429;-70
2022/04/14 13:22:34;;;;;;;;;6.33;3.67;;;;;;;;5078383;28;45481;-70
2022/04/14 13:24:59;;;;;;;;;2.00;0.33;;;;;;;;5077384;28;47165;-70
2022/04/14 13:27:25;;;;;;;;;0.00;0.00;;;;;;;;5077940;28;45431;-70
2022/04/14 13:29:50;;;;;;;;;4.33;2.33;;;;;;;;5077652;28;45383;-70
2022/04/14 13:32:15;;;;;;;;;1.33;0.00;;;;;;;;5078001;28;45410;-70
2022/04/14 13:34:40;;;;;;;;;2.00;1.00;;;;;;;;5077740;28;45368;-70
2022/04/14 13:37:05;;;;;;;;;2.33;1.00;;;;;;;;5078088;28;45356;-70
2022/04/14 13:39:31;;;;;;;;;2.00;0.00;;;;;;;;5073558;28;45458;-70
2022/04/14 13:41:56;;;;;;;;;0.33;0.33;;;;;;;;5063289;28;45400;-70
2022/04/14 13:44:21;;;;;;;;;1.00;1.00;;;;;;;;5057484;28;45386;-70
2022/04/14 13:46:47;;;;;;;;;2.33;2.33;;;;;;;;5079848;27;45406;-70
2022/04/14 13:49:12;;;;;;;;;2.67;2.00;;;;;;;;5094918;27;45363;-70
2022/04/14 13:51:37;;;;;;;;;1.00;1.00;;;;;;;;5085251;27;45351;-70
2022/04/14 13:54:04;;;;;;;;;1.00;1.00;;;;;;;;5092966;27;45433;-70
2022/04/14 13:56:29;;;;;;;;;2.00;0.00;;;;;;;;5076313;28;45413;-70
2022/04/14 13:58:54;;;;;;;;;1.33;1.33;;;;;;;;5077431;28;45521;-70
2022/04/14 14:01:19;;;;;;;;;0.00;0.00;;;;;;;;5077755;28;45399;-70
2022/04/14 14:03:46;;;;;;;;;2.00;2.00;;;;;;;;5079509;27;45673;-70
2022/04/14 14:06:11;;;;;;;;;0.00;0.00;;;;;;;;5076675;28;45416;-71
2022/04/14 14:08:36;;;;;;;;;2.00;1.00;;;;;;;;5077500;28;45494;-70
2022/04/14 14:11:02;;;;;;;;;1.00;1.00;;;;;;;;5077801;28;45344;-70
2022/04/14 14:13:28;;;;;;;;;1.00;1.00;;;;;;;;5077314;28;47438;-70
2022/04/14 14:15:53;;;;;;;;;2.00;2.00;;;;;;;;5077122;28;45309;-70
2022/04/14 14:18:19;;;;;;;;;3.00;3.00;;;;;;;;5077672;28;45516;-70
2022/04/14 14:20:45;;;;;;;;;0.00;0.00;;;;;;;;5077667;28;45407;-69
2022/04/14 14:23:10;;;;;;;;;2.33;0.00;;;;;;;;5077285;28;45601;-69
2022/04/14 14:25:37;;;;;;;;;1.00;1.00;;;;;;;;5076451;28;45367;-70